createdAt,value
2022-08-14T00:01:54.683Z,7.70
2022-08-14T00:04:35.795Z,8.17
2022-08-14T00:07:10.934Z,8.33
2022-08-14T00:09:56.317Z,8.77
2022-08-14T00:12:33.534Z,10.40
2022-08-14T00:15:19.924Z,11.07
2022-08-14T00:17:52.991Z,8.60
2022-08-14T00:20:30.254Z,9.93
2022-08-14T00:23:11.965Z,8.03
2022-08-14T00:25:42.798Z,8.27
2022-08-14T00:28:14.972Z,9.20
2022-08-14T00:30:44.428Z,9.60
2022-08-14T00:33:15.240Z,10.40
2022-08-14T00:36:35.523Z,9.60
2022-08-14T00:38:31.976Z,9.37
2022-08-14T00:41:01.538Z,9.77
2022-08-14T00:43:32.131Z,10.07
2022-08-14T00:46:08.245Z,9.50
2022-08-14T00:48:50.218Z,9.73
2022-08-14T00:51:18.150Z,9.87
2022-08-14T00:53:44.765Z,9.97
2022-08-14T00:56:15.397Z,9.53
2022-08-14T00:58:45.441Z,9.47
2022-08-14T01:01:17.200Z,9.63
2022-08-14T01:03:44.674Z,9.20
2022-08-14T01:06:16.983Z,9.40
2022-08-14T01:08:51.295Z,9.63
2022-08-14T01:11:24.733Z,9.83
2022-08-14T01:13:56.117Z,9.63
2022-08-14T01:16:30.766Z,10.20
2022-08-14T01:19:16.661Z,10.23
2022-08-14T01:21:46.741Z,11.10
2022-08-14T01:24:22.988Z,10.00
2022-08-14T01:27:00.160Z,9.60
2022-08-14T01:29:44.641Z,10.43
2022-08-14T01:32:22.822Z,9.70
2022-08-14T01:35:20.712Z,9.73
2022-08-14T01:37:56.240Z,10.03
2022-08-14T01:40:37.027Z,9.90
2022-08-14T01:43:15.687Z,9.80
2022-08-14T01:45:49.197Z,10.03
2022-08-14T01:48:26.015Z,9.87
2022-08-14T01:50:53.350Z,10.10
2022-08-14T01:53:20.277Z,9.23
2022-08-14T01:55:49.871Z,9.53
2022-08-14T01:58:19.850Z,9.33
2022-08-14T02:00:55.858Z,10.80
2022-08-14T02:03:29.550Z,10.50
2022-08-14T02:06:03.972Z,9.90
2022-08-14T02:08:53.424Z,9.90
2022-08-14T02:11:24.858Z,9.90
2022-08-14T02:14:07.529Z,9.90
2022-08-14T02:16:41.532Z,9.40
2022-08-14T02:19:15.169Z,9.90
2022-08-14T02:21:50.296Z,11.00
2022-08-14T02:24:39.428Z,10.63
2022-08-14T02:28:23.652Z,9.47
2022-08-14T02:30:01.279Z,10.00
2022-08-14T02:32:36.641Z,9.57
2022-08-14T02:35:13.572Z,9.93
2022-08-14T02:37:48.458Z,11.33
2022-08-14T02:40:19.200Z,10.13
2022-08-14T02:42:54.399Z,10.17
2022-08-14T02:45:38.641Z,11.03
2022-08-14T02:49:04.363Z,10.20
2022-08-14T02:51:00.936Z,10.93
2022-08-14T02:53:29.634Z,10.97
2022-08-14T02:56:03.229Z,11.50
2022-08-14T02:58:48.687Z,10.37
2022-08-14T03:01:20.717Z,11.13
2022-08-14T03:03:51.528Z,11.57
2022-08-14T03:06:48.897Z,11.70
2022-08-14T03:09:13.311Z,12.13
2022-08-14T03:11:44.578Z,11.77
2022-08-14T03:14:12.226Z,12.87
2022-08-14T03:16:43.165Z,12.10
2022-08-14T03:19:09.776Z,13.13
2022-08-14T03:21:39.726Z,11.93
2022-08-14T03:24:21.683Z,12.00
2022-08-14T03:26:56.192Z,12.70
2022-08-14T03:29:26.350Z,14.17
2022-08-14T03:31:53.496Z,12.17
2022-08-14T03:34:24.274Z,12.20
2022-08-14T03:37:37.372Z,13.20
2022-08-14T03:39:43.609Z,12.10
2022-08-14T03:42:19.491Z,11.90
2022-08-14T03:45:18.514Z,12.77
2022-08-14T03:47:46.405Z,13.40
2022-08-14T03:50:27.780Z,12.00
2022-08-14T03:53:02.787Z,12.80
2022-08-14T03:55:30.872Z,11.97
2022-08-14T03:58:00.368Z,11.37
2022-08-14T04:00:43.674Z,12.23
2022-08-14T04:03:16.687Z,13.40
2022-08-14T04:05:48.539Z,13.40
2022-08-14T04:08:29.370Z,12.20
2022-08-14T04:11:00.946Z,11.77
2022-08-14T04:13:31.445Z,12.87
2022-08-14T04:16:02.433Z,13.97
2022-08-14T04:18:33.863Z,13.80
2022-08-14T04:21:02.188Z,13.83
2022-08-14T04:23:33.272Z,11.87
2022-08-14T04:26:04.925Z,13.10
2022-08-14T04:29:08.463Z,12.83
2022-08-14T04:32:56.412Z,12.40
2022-08-14T04:34:17.035Z,12.63
2022-08-14T04:37:02.648Z,12.23
2022-08-14T04:39:57.453Z,12.97
2022-08-14T04:42:47.380Z,12.57
2022-08-14T04:45:20.271Z,12.37
2022-08-14T04:48:05.567Z,11.50
2022-08-14T04:50:37.924Z,12.23
2022-08-14T04:53:19.003Z,12.63
2022-08-14T04:55:51.646Z,12.00
2022-08-14T04:58:32.746Z,12.13
2022-08-14T05:01:03.244Z,14.10
2022-08-14T05:03:33.012Z,15.00
2022-08-14T05:06:03.293Z,12.20
2022-08-14T05:08:50.602Z,13.03
2022-08-14T05:11:19.358Z,11.33
2022-08-14T05:14:34.361Z,12.73
2022-08-14T05:16:33.227Z,12.23
2022-08-14T05:19:17.870Z,12.00
2022-08-14T05:22:00.059Z,11.93
2022-08-14T05:24:29.091Z,10.80
2022-08-14T05:26:57.337Z,14.63
2022-08-14T05:29:27.487Z,11.23
2022-08-14T05:31:57.590Z,13.13
2022-08-14T05:34:31.499Z,13.13
2022-08-14T05:37:06.884Z,13.30
2022-08-14T05:39:33.938Z,12.40
2022-08-14T05:42:00.857Z,12.33
2022-08-14T05:44:36.488Z,12.37
2022-08-14T05:47:02.905Z,11.73
2022-08-14T05:49:33.746Z,12.43
2022-08-14T05:52:02.844Z,12.07
2022-08-14T05:54:35.368Z,12.70
2022-08-14T05:57:05.922Z,12.00
2022-08-14T05:59:36.763Z,13.80
2022-08-14T06:02:10.414Z,11.43
2022-08-14T06:04:37.743Z,14.30
2022-08-14T06:07:05.096Z,13.40
2022-08-14T06:09:35.344Z,11.80
2022-08-14T06:12:03.169Z,11.97
2022-08-14T06:14:37.551Z,12.13
2022-08-14T06:17:05.883Z,11.20
2022-08-14T06:19:32.708Z,12.07
2022-08-14T06:21:59.797Z,13.30
2022-08-14T06:24:30.457Z,14.43
2022-08-14T06:27:04.299Z,13.00
2022-08-14T06:29:35.005Z,12.67
2022-08-14T06:32:52.506Z,14.33
2022-08-14T06:35:04.018Z,13.27
2022-08-14T06:37:42.939Z,14.30
2022-08-14T06:40:16.658Z,11.90
2022-08-14T06:43:00.429Z,15.70
2022-08-14T06:45:31.798Z,13.63
2022-08-14T06:47:59.245Z,12.07
2022-08-14T06:50:30.166Z,13.70
2022-08-14T06:53:03.063Z,13.67
2022-08-14T06:55:29.980Z,15.37
2022-08-14T06:57:57.616Z,14.80
2022-08-14T07:00:30.902Z,14.73
2022-08-14T07:03:19.072Z,13.70
2022-08-14T07:05:58.274Z,14.73
2022-08-14T07:08:29.459Z,12.27
2022-08-14T07:11:01.408Z,14.67
2022-08-14T07:13:28.613Z,13.70
2022-08-14T07:15:58.849Z,12.57
2022-08-14T07:18:32.837Z,12.27
2022-08-14T07:21:00.647Z,13.40
2022-08-14T07:23:27.752Z,12.20
2022-08-14T07:25:59.669Z,12.70
2022-08-14T07:28:35.977Z,11.93
2022-08-14T07:31:11.772Z,15.40
2022-08-14T07:33:50.841Z,12.27
2022-08-14T07:36:27.785Z,12.10
2022-08-14T07:39:00.778Z,11.70
2022-08-14T07:41:33.846Z,11.90
2022-08-14T07:44:28.594Z,11.07
2022-08-14T07:46:49.093Z,11.77
2022-08-14T07:49:17.804Z,11.63
2022-08-14T07:51:45.305Z,13.65
2022-08-14T07:54:12.391Z,13.20
2022-08-14T07:56:46.592Z,11.23
2022-08-14T07:59:16.808Z,11.23
2022-08-14T08:01:47.806Z,11.43
2022-08-14T08:04:16.722Z,12.32
2022-08-14T08:06:52.968Z,11.10
2022-08-14T08:09:24.439Z,11.00
2022-08-14T08:11:54.598Z,12.50
2022-08-14T08:14:25.699Z,11.13
2022-08-14T08:16:57.484Z,11.32
2022-08-14T08:19:25.624Z,12.02
2022-08-14T08:21:52.540Z,11.48
2022-08-14T08:24:21.024Z,11.75
2022-08-14T08:26:50.307Z,12.07
2022-08-14T08:29:28.714Z,12.23
2022-08-14T08:32:01.898Z,11.10
2022-08-14T08:34:38.851Z,11.48
2022-08-14T08:37:07.298Z,12.73
2022-08-14T08:40:02.697Z,11.77
2022-08-14T08:42:38.787Z,12.32
2022-08-14T08:45:12.108Z,11.65
2022-08-14T08:47:43.099Z,11.43
2022-08-14T08:50:23.079Z,11.90
2022-08-14T08:52:52.445Z,12.48
2022-08-14T08:55:46.087Z,12.30
2022-08-14T08:58:20.057Z,12.07
2022-08-14T09:00:54.798Z,12.85
2022-08-14T09:03:27.378Z,13.40
2022-08-14T09:05:58.824Z,12.98
2022-08-14T09:08:31.353Z,12.05
2022-08-14T09:11:18.780Z,11.23
2022-08-14T09:13:50.148Z,11.68
2022-08-14T09:16:21.060Z,14.10
2022-08-14T09:18:48.914Z,12.45
2022-08-14T09:21:16.307Z,11.45
2022-08-14T09:24:26.651Z,10.90
2022-08-14T09:26:30.229Z,11.63
2022-08-14T09:28:59.458Z,11.68
2022-08-14T09:31:28.646Z,10.98
2022-08-14T09:34:27.223Z,11.48
2022-08-14T09:37:15.971Z,11.40
2022-08-14T09:39:51.354Z,10.13
2022-08-14T09:42:36.787Z,10.85
2022-08-14T09:45:17.562Z,10.40
2022-08-14T09:47:47.276Z,12.48
2022-08-14T09:50:44.352Z,10.25
2022-08-14T09:53:18.073Z,9.82
2022-08-14T09:55:45.741Z,10.48
2022-08-14T09:58:23.134Z,10.13
2022-08-14T10:01:01.993Z,10.98
2022-08-14T10:03:36.911Z,10.20
2022-08-14T10:06:12.656Z,10.10
2022-08-14T10:08:51.718Z,9.93
2022-08-14T10:11:24.949Z,9.80
2022-08-14T10:14:35.240Z,10.40
2022-08-14T10:17:08.735Z,9.75
2022-08-14T10:19:36.405Z,9.93
2022-08-14T10:23:13.006Z,10.07
2022-08-14T10:24:59.849Z,9.80
2022-08-14T10:27:29.086Z,9.73
2022-08-14T10:30:00.628Z,11.88
2022-08-14T10:32:40.222Z,10.35
2022-08-14T10:35:17.309Z,10.02
2022-08-14T10:37:51.764Z,8.90
2022-08-14T10:40:44.197Z,9.55
2022-08-14T10:43:27.752Z,9.07
2022-08-14T10:46:58.992Z,9.13
2022-08-14T10:49:05.128Z,9.02
2022-08-14T10:51:35.199Z,9.27
2022-08-14T10:54:35.090Z,8.68
2022-08-14T10:57:11.287Z,9.25
2022-08-14T10:59:56.653Z,10.25
2022-08-14T11:02:44.876Z,10.18
2022-08-14T11:05:18.432Z,12.23
2022-08-14T11:07:56.514Z,9.68
2022-08-14T11:10:28.020Z,9.77
2022-08-14T11:12:57.770Z,9.40
2022-08-14T11:15:27.792Z,9.20
2022-08-14T11:18:01.137Z,9.55
2022-08-14T11:20:30.840Z,9.57
2022-08-14T11:23:00.658Z,9.45
2022-08-14T11:25:36.859Z,9.75
2022-08-14T11:28:14.678Z,10.13
2022-08-14T11:30:53.829Z,9.50
2022-08-14T11:33:29.470Z,9.48
2022-08-14T11:36:00.482Z,10.27
2022-08-14T11:38:38.034Z,9.98
2022-08-14T11:41:06.169Z,12.20
2022-08-14T11:43:55.786Z,11.18
2022-08-14T11:46:30.435Z,9.55
2022-08-14T11:49:06.183Z,9.95
2022-08-14T11:51:36.444Z,9.63
2022-08-14T11:54:20.744Z,8.50
2022-08-14T11:57:04.634Z,8.60
2022-08-14T11:59:33.511Z,9.38
2022-08-14T12:03:00.942Z,9.50
2022-08-14T12:04:57.909Z,8.82
2022-08-14T12:07:24.774Z,9.52
2022-08-14T12:09:56.271Z,11.73
2022-08-14T12:12:35.793Z,9.23
2022-08-14T12:15:05.314Z,9.25
2022-08-14T12:17:47.649Z,8.70
2022-08-14T12:20:29.952Z,9.57
2022-08-14T12:23:05.383Z,9.60
2022-08-14T12:25:34.654Z,9.07
2022-08-14T12:28:05.585Z,9.43
2022-08-14T12:30:42.879Z,9.80
2022-08-14T12:33:32.875Z,10.18
2022-08-14T12:36:07.985Z,9.68
2022-08-14T12:38:44.076Z,9.57
2022-08-14T12:41:21.267Z,9.80
2022-08-14T12:43:53.378Z,9.07
2022-08-14T12:46:40.569Z,9.27
2022-08-14T12:49:16.921Z,9.30
2022-08-14T12:51:59.522Z,9.00
2022-08-14T12:54:29.314Z,8.77
2022-08-14T12:57:06.266Z,8.63
2022-08-14T12:59:33.276Z,9.27
2022-08-14T13:02:08.687Z,8.68
2022-08-14T13:04:39.534Z,9.00
2022-08-14T13:07:09.681Z,9.07
2022-08-14T13:09:37.765Z,9.13
2022-08-14T13:12:32.269Z,9.00
2022-08-14T13:14:55.098Z,8.75
2022-08-14T13:17:24.400Z,9.18
2022-08-14T13:19:56.790Z,9.00
2022-08-14T13:22:33.340Z,10.13
2022-08-14T13:25:05.231Z,9.40
2022-08-14T13:27:38.608Z,9.38
2022-08-14T13:30:10.828Z,9.57
2022-08-14T13:32:51.964Z,9.57
2022-08-14T13:35:19.495Z,10.00
2022-08-14T13:37:52.470Z,9.43
2022-08-14T13:40:26.285Z,9.02
2022-08-14T13:42:57.076Z,8.50
2022-08-14T13:45:33.989Z,9.52
2022-08-14T13:48:27.451Z,9.65
2022-08-14T13:51:01.557Z,10.10
2022-08-14T13:53:33.728Z,8.65
2022-08-14T13:56:02.821Z,9.57
2022-08-14T13:58:35.691Z,9.48
2022-08-14T14:01:04.446Z,9.75
2022-08-14T14:03:35.232Z,9.68
2022-08-14T14:06:03.133Z,10.10
2022-08-14T14:08:43.221Z,10.13
2022-08-14T14:11:11.256Z,9.27
2022-08-14T14:13:44.962Z,10.23
2022-08-14T14:16:15.028Z,10.45
2022-08-14T14:18:43.937Z,10.15
2022-08-14T14:21:14.171Z,10.45
2022-08-14T14:23:42.896Z,10.57
2022-08-14T14:26:13.943Z,10.40
2022-08-14T14:28:42.640Z,10.20
2022-08-14T14:31:11.757Z,10.13
2022-08-14T14:33:46.764Z,10.40
2022-08-14T14:36:20.985Z,10.95
2022-08-14T14:38:57.974Z,12.95
2022-08-14T14:41:37.961Z,10.60
2022-08-14T14:44:06.953Z,10.30
2022-08-14T14:46:37.686Z,9.88
2022-08-14T14:49:14.089Z,9.40
2022-08-14T14:51:45.088Z,11.48
2022-08-14T14:54:17.779Z,10.30
2022-08-14T14:56:49.303Z,10.48
2022-08-14T14:59:18.898Z,10.30
2022-08-14T15:01:53.811Z,10.40
2022-08-14T15:04:21.525Z,10.05
2022-08-14T15:06:50.216Z,10.57
2022-08-14T15:09:20.429Z,10.52
2022-08-14T15:11:50.026Z,10.35
2022-08-14T15:14:54.996Z,10.07
2022-08-14T15:17:03.844Z,10.25
2022-08-14T15:19:32.091Z,9.80
2022-08-14T15:21:59.605Z,10.85
2022-08-14T15:24:27.225Z,10.27
2022-08-14T15:26:58.476Z,10.55
2022-08-14T15:29:25.982Z,10.30
2022-08-14T15:31:53.385Z,9.73
2022-08-14T15:34:44.089Z,9.90
2022-08-14T15:37:10.955Z,9.80
2022-08-14T15:39:41.525Z,8.85
2022-08-14T15:42:16.043Z,9.35
2022-08-14T15:44:58.457Z,9.38
2022-08-14T15:47:31.124Z,9.95
2022-08-14T15:50:05.001Z,9.32
2022-08-14T15:52:35.162Z,9.50
2022-08-14T15:55:07.691Z,10.30
2022-08-14T15:57:34.898Z,9.82
2022-08-14T16:00:39.998Z,9.43
2022-08-14T16:03:14.243Z,9.57
2022-08-14T16:05:43.961Z,9.68
2022-08-14T16:08:28.633Z,10.20
2022-08-14T16:10:59.167Z,9.77
2022-08-14T16:13:39.459Z,9.55
2022-08-14T16:16:50.825Z,10.38
2022-08-14T16:22:56.714Z,9.68
2022-08-14T16:25:02.219Z,9.43
2022-08-14T16:27:38.879Z,9.68
2022-08-14T16:30:12.177Z,9.63
2022-08-14T16:32:54.869Z,11.23
2022-08-14T16:35:24.956Z,11.20
2022-08-14T16:37:55.655Z,10.50
2022-08-14T16:40:23.815Z,9.68
2022-08-14T16:43:04.596Z,10.43
2022-08-14T16:45:43.893Z,10.15
2022-08-14T16:48:56.863Z,10.40
2022-08-14T16:50:58.197Z,10.35
2022-08-14T16:53:28.138Z,10.00
2022-08-14T16:56:23.010Z,10.20
2022-08-14T16:58:51.616Z,10.73
2022-08-14T17:01:25.079Z,11.13
2022-08-14T17:03:58.164Z,10.65
2022-08-14T17:06:51.153Z,10.23
2022-08-14T17:09:33.325Z,12.05
2022-08-14T17:12:28.559Z,11.45
2022-08-14T17:15:09.745Z,9.98
2022-08-14T17:17:40.109Z,9.48
2022-08-14T17:21:00.411Z,9.95
2022-08-14T17:23:02.576Z,10.07
2022-08-14T17:25:37.481Z,11.05
2022-08-14T17:28:52.217Z,10.15
2022-08-14T17:31:05.535Z,10.00
2022-08-14T17:40:41.429Z,10.07
2022-08-14T17:43:07.897Z,10.88
2022-08-14T17:45:41.258Z,10.75
2022-08-14T17:49:14.441Z,10.50
2022-08-14T17:51:23.764Z,10.50
2022-08-14T17:54:02.668Z,10.32
2022-08-14T17:56:31.816Z,13.05
2022-08-14T17:59:05.938Z,10.80
2022-08-14T18:01:37.761Z,10.48
2022-08-14T18:04:24.442Z,10.50
2022-08-14T18:06:57.873Z,11.52
2022-08-14T18:09:37.458Z,10.38
2022-08-14T18:12:08.121Z,10.38
2022-08-14T18:14:48.612Z,10.65
2022-08-14T18:17:23.545Z,10.45
2022-08-14T18:19:51.055Z,9.77
2022-08-14T18:22:32.072Z,10.05
2022-08-14T18:25:19.246Z,9.75
2022-08-14T18:27:51.520Z,10.35
2022-08-14T18:30:32.121Z,10.35
2022-08-14T18:33:16.805Z,9.50
2022-08-14T18:35:58.198Z,9.43
2022-08-14T18:38:45.639Z,9.05
2022-08-14T18:41:37.260Z,10.40
2022-08-14T18:44:10.772Z,9.32
2022-08-14T18:47:16.052Z,9.60
2022-08-14T18:50:00.393Z,9.13
2022-08-14T18:52:34.662Z,10.75
2022-08-14T18:55:17.023Z,9.60
2022-08-14T18:57:58.823Z,9.60
2022-08-14T19:00:33.142Z,9.43
2022-08-14T19:03:05.009Z,9.73
2022-08-14T19:05:47.666Z,9.88
2022-08-14T19:08:25.310Z,9.82
2022-08-14T19:11:05.168Z,9.70
2022-08-14T19:13:48.022Z,10.05
2022-08-14T19:16:26.336Z,10.55
2022-08-14T19:19:00.183Z,11.65
2022-08-14T19:21:38.420Z,10.98
2022-08-14T19:24:27.776Z,10.23
2022-08-14T19:27:16.740Z,10.40
2022-08-14T19:29:47.932Z,9.98
2022-08-14T19:32:36.926Z,10.48
2022-08-14T19:35:16.470Z,11.07
2022-08-14T19:37:52.754Z,11.55
2022-08-14T19:40:38.481Z,11.27
2022-08-14T19:43:06.501Z,10.05
2022-08-14T19:45:34.057Z,11.23
2022-08-14T19:48:01.550Z,10.57
2022-08-14T19:50:38.622Z,11.82
2022-08-14T19:53:17.183Z,12.18
2022-08-14T19:55:58.759Z,10.23
2022-08-14T19:58:54.157Z,10.27
2022-08-14T20:01:25.795Z,11.02
2022-08-14T20:04:00.678Z,10.65
2022-08-14T20:06:43.332Z,11.23
2022-08-14T20:11:05.560Z,10.70
2022-08-14T20:12:04.789Z,11.45
2022-08-14T20:14:36.769Z,11.40
2022-08-14T20:17:06.994Z,11.93
2022-08-14T20:19:37.331Z,11.48
2022-08-14T20:22:37.442Z,11.63
2022-08-14T20:25:16.158Z,11.50
2022-08-14T20:27:44.701Z,12.23
2022-08-14T20:30:33.115Z,12.13
2022-08-14T20:33:11.296Z,11.15
2022-08-14T20:35:38.254Z,11.15
2022-08-14T20:38:30.438Z,10.98
2022-08-14T20:41:06.747Z,11.18
2022-08-14T20:43:57.302Z,10.90
2022-08-14T20:46:29.822Z,11.70
2022-08-14T20:48:59.961Z,11.27
2022-08-14T20:51:37.789Z,11.00
2022-08-14T20:54:14.357Z,11.93
2022-08-14T20:56:44.539Z,12.00
2022-08-14T20:59:23.457Z,12.32
2022-08-14T21:02:27.011Z,11.23
2022-08-14T21:05:03.662Z,11.60
2022-08-14T21:07:36.624Z,10.35
2022-08-14T21:10:35.374Z,11.13
2022-08-14T21:14:09.359Z,11.38
2022-08-14T21:15:57.345Z,10.50
2022-08-14T21:18:31.732Z,11.43
2022-08-14T21:21:07.083Z,11.15
2022-08-14T21:23:54.028Z,11.50
2022-08-14T21:26:51.066Z,11.15
2022-08-14T21:29:22.060Z,11.25
2022-08-14T21:31:56.039Z,11.68
2022-08-14T21:34:31.303Z,10.77
2022-08-14T21:37:07.779Z,11.80
2022-08-14T21:39:36.892Z,12.30
2022-08-14T21:42:05.764Z,11.73
2022-08-14T21:44:36.223Z,11.02
2022-08-14T21:47:10.301Z,11.00
2022-08-14T21:49:38.886Z,11.45
2022-08-14T21:52:49.641Z,11.30
2022-08-14T21:55:09.153Z,12.30
2022-08-14T21:58:45.922Z,11.20
2022-08-14T22:00:39.488Z,11.95
2022-08-14T22:03:17.296Z,12.00
2022-08-14T22:05:46.324Z,12.20
2022-08-14T22:08:14.417Z,11.70
2022-08-14T22:11:11.331Z,11.73
2022-08-14T22:13:46.508Z,12.35
2022-08-14T22:17:02.128Z,11.95
2022-08-14T22:19:01.142Z,11.50
2022-08-14T22:21:28.303Z,11.90
2022-08-14T22:23:57.680Z,12.25
2022-08-14T22:26:30.695Z,11.13
2022-08-14T22:28:59.162Z,11.18
2022-08-14T22:31:26.139Z,12.10
2022-08-14T22:34:04.303Z,14.35
2022-08-14T22:36:49.654Z,11.30
2022-08-14T22:40:17.523Z,11.90
2022-08-14T22:45:08.636Z,11.25
2022-08-14T22:47:40.820Z,12.20
2022-08-14T22:50:31.597Z,11.82
2022-08-14T22:52:57.015Z,11.63
2022-08-14T22:55:25.688Z,11.82
2022-08-14T22:57:52.448Z,11.88
2022-08-14T23:00:25.675Z,11.43
2022-08-14T23:03:01.992Z,12.50
2022-08-14T23:05:39.207Z,11.43
2022-08-14T23:08:59.938Z,11.70
2022-08-14T23:10:59.587Z,11.70
2022-08-14T23:13:26.339Z,11.75
2022-08-14T23:15:57.973Z,11.57
2022-08-14T23:18:29.557Z,11.35
2022-08-14T23:20:56.567Z,11.98
2022-08-14T23:23:23.487Z,11.98
2022-08-14T23:25:59.523Z,11.30
2022-08-14T23:28:35.017Z,12.43
2022-08-14T23:31:34.331Z,11.25
2022-08-14T23:34:07.125Z,11.75
2022-08-14T23:36:52.543Z,11.98
2022-08-14T23:39:30.227Z,11.20
2022-08-14T23:42:04.710Z,11.77
2022-08-14T23:44:35.127Z,12.10
2022-08-14T23:47:10.428Z,11.35
2022-08-14T23:50:01.149Z,12.02
2022-08-14T23:53:04.158Z,11.05
2022-08-14T23:55:21.134Z,12.35
2022-08-14T23:57:58.192Z,12.15
